createdAt,value
2023-01-03T00:00:12.178Z,102423.97
2023-01-03T00:02:44.321Z,102417.00
2023-01-03T00:05:16.376Z,102423.03
2023-01-03T00:07:48.515Z,102415.94
2023-01-03T00:10:20.667Z,102424.78
2023-01-03T00:12:52.654Z,102420.97
2023-01-03T00:15:24.625Z,102433.03
2023-01-03T00:17:56.799Z,102432.75
2023-01-03T00:20:28.886Z,102432.44
2023-01-03T00:23:02.338Z,102438.34
2023-01-03T00:25:34.528Z,102450.66
2023-01-03T00:28:06.823Z,102447.13
2023-01-03T00:30:38.827Z,102451.31
2023-01-03T00:33:10.909Z,102454.03
2023-01-03T00:35:42.980Z,102458.28
2023-01-03T00:38:14.983Z,102458.19
2023-01-03T00:40:47.103Z,102462.00
2023-01-03T00:43:31.095Z,102458.63
2023-01-03T00:46:04.289Z,102463.09
2023-01-03T00:48:37.331Z,102464.59
2023-01-03T00:51:16.476Z,102465.84
2023-01-03T00:53:50.922Z,102463.16
2023-01-03T00:56:27.018Z,102466.50
2023-01-03T00:58:59.325Z,102468.94
2023-01-03T01:01:46.816Z,102473.53
2023-01-03T01:04:39.235Z,102470.69
2023-01-03T01:07:11.344Z,102482.63
2023-01-03T01:09:43.295Z,102483.25
2023-01-03T01:12:15.292Z,102497.53
2023-01-03T01:14:47.255Z,102494.22
2023-01-03T01:17:22.559Z,102503.78
2023-01-03T01:19:55.110Z,102508.22
2023-01-03T01:22:27.089Z,102509.16
2023-01-03T01:24:59.082Z,102516.28
2023-01-03T01:27:31.797Z,102518.91
2023-01-03T01:30:04.317Z,102525.06
2023-01-03T01:32:36.381Z,102536.00
2023-01-03T01:35:09.080Z,102530.97
2023-01-03T01:37:41.247Z,102540.19
2023-01-03T01:40:13.304Z,102531.50
2023-01-03T01:43:03.706Z,102535.94
2023-01-03T01:45:36.073Z,102544.06
2023-01-03T01:48:14.495Z,102541.53
2023-01-03T01:50:55.399Z,102544.97
2023-01-03T01:53:34.890Z,102547.50
2023-01-03T01:56:23.924Z,102554.63
2023-01-03T01:58:56.536Z,102544.31
2023-01-03T02:01:29.686Z,102542.41
2023-01-03T02:04:30.570Z,102539.00
2023-01-03T02:07:03.796Z,102541.72
2023-01-03T02:09:35.761Z,102546.84
2023-01-03T02:12:59.530Z,102541.66
2023-01-03T02:16:13.199Z,102545.38
2023-01-03T02:19:11.996Z,102545.91
2023-01-03T02:22:14.269Z,102544.31
2023-01-03T02:25:13.436Z,102540.13
2023-01-03T02:28:25.509Z,102543.50
2023-01-03T02:31:13.152Z,102542.88
2023-01-03T02:34:04.104Z,102545.84
2023-01-03T02:37:25.270Z,102544.97
2023-01-03T02:40:20.924Z,102552.09
2023-01-03T02:43:21.430Z,102547.84
2023-01-03T02:46:09.346Z,102550.50
2023-01-03T02:48:48.377Z,102553.81
2023-01-03T02:51:55.248Z,102547.63
2023-01-03T02:54:40.226Z,102545.78
2023-01-03T02:57:20.570Z,102556.09
2023-01-03T02:59:58.952Z,102551.84
2023-01-03T03:02:33.267Z,102561.63
2023-01-03T03:05:15.481Z,102559.84
2023-01-03T03:07:47.498Z,102561.56
2023-01-03T03:10:38.863Z,102557.81
2023-01-03T03:13:25.881Z,102562.13
2023-01-03T03:16:44.075Z,102562.31
2023-01-03T03:19:43.099Z,102572.75
2023-01-03T03:22:37.675Z,102571.38
2023-01-03T03:25:45.373Z,102581.63
2023-01-03T03:28:36.728Z,102589.53
2023-01-03T03:31:24.017Z,102592.94
2023-01-03T03:34:10.880Z,102591.63
2023-01-03T03:36:58.054Z,102598.69
2023-01-03T03:39:51.493Z,102597.13
2023-01-03T03:42:59.629Z,102600.25
2023-01-03T03:45:43.034Z,102595.66
2023-01-03T03:49:26.942Z,102600.97
2023-01-03T03:52:02.234Z,102599.81
2023-01-03T03:54:40.303Z,102604.94
2023-01-03T03:57:29.708Z,102606.25
2023-01-03T04:00:14.181Z,102609.03
2023-01-03T04:02:47.967Z,102613.34
2023-01-03T04:05:23.860Z,102622.22
2023-01-03T04:07:55.889Z,102622.22
2023-01-03T04:10:32.590Z,102617.72
2023-01-03T04:13:07.766Z,102615.66
2023-01-03T04:15:40.419Z,102623.09
2023-01-03T04:18:12.377Z,102619.84
2023-01-03T04:20:44.849Z,102617.78
2023-01-03T04:23:16.806Z,102622.69
2023-01-03T04:25:49.324Z,102622.63
2023-01-03T04:28:21.465Z,102624.34
2023-01-03T04:30:53.477Z,102629.72
2023-01-03T04:33:25.897Z,102629.94
2023-01-03T04:35:57.850Z,102632.31
2023-01-03T04:38:29.821Z,102624.53
2023-01-03T04:41:09.011Z,102625.28
2023-01-03T04:43:59.394Z,102627.81
2023-01-03T04:46:34.875Z,102627.69
2023-01-03T04:49:09.383Z,102623.78
2023-01-03T04:51:41.654Z,102623.94
2023-01-03T04:54:13.571Z,102631.56
2023-01-03T04:56:45.914Z,102625.44
2023-01-03T04:59:17.848Z,102628.09
2023-01-03T05:01:52.621Z,102630.00
2023-01-03T05:04:24.881Z,102626.59
2023-01-03T05:06:56.985Z,102629.59
2023-01-03T05:09:29.417Z,102628.75
2023-01-03T05:12:01.390Z,102631.34
2023-01-03T05:14:33.361Z,102634.75
2023-01-03T05:17:05.434Z,102637.56
2023-01-03T05:19:57.795Z,102640.03
2023-01-03T05:22:48.151Z,102639.06
2023-01-03T05:25:38.564Z,102637.50
2023-01-03T05:28:16.924Z,102633.94
2023-01-03T05:30:49.614Z,102636.81
2023-01-03T05:33:21.554Z,102634.69
2023-01-03T05:35:53.653Z,102645.41
2023-01-03T05:38:26.111Z,102640.38
2023-01-03T05:40:58.190Z,102639.00
2023-01-03T05:43:30.267Z,102640.84
2023-01-03T05:46:03.556Z,102647.78
2023-01-03T05:48:36.180Z,102652.84
2023-01-03T05:51:08.152Z,102655.44
2023-01-03T05:53:40.507Z,102651.41
2023-01-03T05:56:12.543Z,102654.41
2023-01-03T05:58:44.902Z,102655.34
2023-01-03T06:01:17.753Z,102660.31
2023-01-03T06:03:49.809Z,102664.91
2023-01-03T06:06:22.098Z,102667.22
2023-01-03T06:08:54.889Z,102672.25
2023-01-03T06:11:27.127Z,102677.44
2023-01-03T06:13:59.152Z,102676.41
2023-01-03T06:16:50.578Z,102682.16
2023-01-03T06:19:22.637Z,102684.31
2023-01-03T06:21:54.622Z,102690.69
2023-01-03T06:24:26.657Z,102688.09
2023-01-03T06:26:58.593Z,102686.53
2023-01-03T06:29:31.050Z,102691.66
2023-01-03T06:32:08.873Z,102694.91
2023-01-03T06:34:41.653Z,102697.34
2023-01-03T06:37:13.661Z,102690.97
2023-01-03T06:39:45.905Z,102691.56
2023-01-03T06:42:36.607Z,102697.19
2023-01-03T06:45:29.371Z,102697.69
2023-01-03T06:48:28.848Z,102709.25
2023-01-03T06:51:19.178Z,102703.63
2023-01-03T06:53:51.067Z,102715.38
2023-01-03T06:56:23.293Z,102715.78
2023-01-03T06:58:55.312Z,102710.88
2023-01-03T07:01:27.702Z,102714.50
2023-01-03T07:03:59.775Z,102714.03
2023-01-03T07:06:31.833Z,102722.78
2023-01-03T07:09:04.058Z,102729.06
2023-01-03T07:11:37.211Z,102723.22
2023-01-03T07:14:11.583Z,102731.19
2023-01-03T07:16:46.619Z,102736.53
2023-01-03T07:19:20.296Z,102746.00
2023-01-03T07:21:52.369Z,102742.81
2023-01-03T07:24:24.526Z,102743.75
2023-01-03T07:26:56.516Z,102744.78
2023-01-03T07:29:28.971Z,102744.56
2023-01-03T07:32:01.073Z,102754.94
2023-01-03T07:34:33.579Z,102750.84
2023-01-03T07:37:05.573Z,102752.16
2023-01-03T07:39:38.115Z,102754.06
2023-01-03T07:42:32.964Z,102762.13
2023-01-03T07:45:05.797Z,102759.94
2023-01-03T07:47:38.098Z,102772.75
2023-01-03T07:50:10.189Z,102764.44
2023-01-03T07:52:42.327Z,102772.56
2023-01-03T07:55:14.329Z,102776.06
2023-01-03T07:57:46.840Z,102765.41
2023-01-03T08:00:19.000Z,102770.66
2023-01-03T08:02:56.341Z,102780.63
2023-01-03T08:05:28.403Z,102773.94
2023-01-03T08:08:00.494Z,102782.91
2023-01-03T08:10:51.397Z,102787.16
2023-01-03T08:13:25.256Z,102790.03
2023-01-03T08:15:57.462Z,102785.94
2023-01-03T08:18:29.588Z,102791.06
2023-01-03T08:21:01.687Z,102801.34
2023-01-03T08:23:34.460Z,102801.00
2023-01-03T08:26:16.648Z,102787.88
2023-01-03T08:28:48.678Z,102796.63
2023-01-03T08:31:23.005Z,102793.16
2023-01-03T08:34:10.315Z,102799.22
2023-01-03T08:36:55.626Z,102801.00
2023-01-03T08:39:34.882Z,102798.41
2023-01-03T08:42:08.874Z,102803.09
2023-01-03T08:44:44.944Z,102812.50
2023-01-03T08:47:17.850Z,102809.09
2023-01-03T08:49:50.045Z,102808.63
2023-01-03T08:52:22.008Z,102817.91
2023-01-03T08:54:54.011Z,102821.81
2023-01-03T08:57:26.039Z,102820.63
2023-01-03T08:59:58.146Z,102827.97
2023-01-03T09:02:30.409Z,102823.69
2023-01-03T09:05:02.716Z,102827.81
2023-01-03T09:07:34.715Z,102828.19
2023-01-03T09:10:07.319Z,102833.00
2023-01-03T09:12:39.321Z,102836.84
2023-01-03T09:15:12.098Z,102844.25
2023-01-03T09:17:45.252Z,102837.53
2023-01-03T09:20:18.874Z,102833.75
2023-01-03T09:22:51.339Z,102837.34
2023-01-03T09:25:23.536Z,102844.81
2023-01-03T09:27:55.641Z,102852.47
2023-01-03T09:30:27.634Z,102852.91
2023-01-03T09:32:59.611Z,102850.22
2023-01-03T09:35:32.817Z,102850.78
2023-01-03T09:38:05.001Z,102847.69
2023-01-03T09:40:44.324Z,102848.28
2023-01-03T09:43:25.461Z,102845.56
2023-01-03T09:46:00.022Z,102844.66
2023-01-03T09:48:39.049Z,102844.41
2023-01-03T09:51:44.156Z,102838.41
2023-01-03T09:55:04.177Z,102832.56
2023-01-03T09:57:56.011Z,102830.72
2023-01-03T10:00:59.056Z,102836.00
2023-01-03T10:04:11.787Z,102827.41
2023-01-03T10:07:08.591Z,102842.78
2023-01-03T10:09:54.465Z,102841.91
2023-01-03T10:12:48.040Z,102843.53
2023-01-03T10:15:55.094Z,102844.41
2023-01-03T10:18:59.617Z,102833.75
2023-01-03T10:22:05.175Z,102829.88
2023-01-03T10:24:46.475Z,102838.63
2023-01-03T10:27:25.365Z,102827.81
2023-01-03T10:30:04.523Z,102822.66
2023-01-03T10:33:14.098Z,102821.84
2023-01-03T10:35:46.517Z,102820.41
2023-01-03T10:38:20.540Z,102824.28
2023-01-03T10:41:02.585Z,102813.84
2023-01-03T10:43:45.767Z,102817.13
2023-01-03T10:46:22.158Z,102818.44
2023-01-03T10:52:11.022Z,102799.84
2023-01-03T10:54:43.008Z,102801.06
2023-01-03T10:57:48.428Z,102795.41
2023-01-03T11:00:27.004Z,102798.06
2023-01-03T11:03:16.663Z,102797.72
2023-01-03T11:06:01.307Z,102793.72
2023-01-03T11:08:47.374Z,102789.03
2023-01-03T11:11:40.764Z,102793.59
2023-01-03T11:14:26.196Z,102797.28
2023-01-03T11:17:06.174Z,102793.16
2023-01-03T11:19:38.279Z,102794.13
2023-01-03T11:22:37.660Z,102784.41
2023-01-03T11:25:24.672Z,102795.06
2023-01-03T11:28:35.581Z,102781.63
2023-01-03T11:31:20.383Z,102782.25
2023-01-03T11:34:12.022Z,102781.44
2023-01-03T11:36:59.607Z,102777.56
2023-01-03T11:40:28.831Z,102779.41
2023-01-03T11:43:25.765Z,102771.47
2023-01-03T11:46:40.690Z,102769.00
2023-01-03T11:49:47.860Z,102760.91
2023-01-03T11:52:34.097Z,102754.28
2023-01-03T11:55:44.740Z,102748.00
2023-01-03T11:58:40.479Z,102744.53
2023-01-03T12:01:18.168Z,102736.09
2023-01-03T12:04:15.576Z,102730.88
2023-01-03T12:07:47.149Z,102723.09
2023-01-03T12:10:24.995Z,102731.47
2023-01-03T12:13:14.539Z,102725.63
2023-01-03T12:15:49.861Z,102735.72
2023-01-03T12:18:39.979Z,102734.19
2023-01-03T12:21:34.375Z,102730.59
2023-01-03T12:24:29.908Z,102734.59
2023-01-03T12:27:29.273Z,102721.66
2023-01-03T12:30:29.556Z,102724.88
2023-01-03T12:33:16.521Z,102706.84
2023-01-03T12:35:58.118Z,102701.38
2023-01-03T12:39:13.975Z,102702.91
2023-01-03T12:42:20.549Z,102705.06
2023-01-03T12:45:08.079Z,102697.09
2023-01-03T12:47:48.655Z,102690.00
2023-01-03T12:50:42.456Z,102691.16
2023-01-03T12:53:50.780Z,102688.19
2023-01-03T12:56:58.315Z,102679.22
2023-01-03T13:00:10.898Z,102678.00
2023-01-03T13:02:52.915Z,102680.56
2023-01-03T13:05:56.981Z,102680.50
2023-01-03T13:08:55.483Z,102670.13
2023-01-03T13:11:37.606Z,102679.53
2023-01-03T13:14:23.745Z,102678.59
2023-01-03T13:16:56.938Z,102676.44
2023-01-03T13:19:28.838Z,102674.72
2023-01-03T13:22:47.078Z,102665.81
2023-01-03T13:25:31.171Z,102666.31
2023-01-03T13:28:20.349Z,102661.00
2023-01-03T13:31:16.844Z,102671.41
2023-01-03T13:33:55.686Z,102667.44
2023-01-03T13:37:18.368Z,102677.78
2023-01-03T13:39:50.383Z,102674.25
2023-01-03T13:42:38.340Z,102671.63
2023-01-03T13:45:17.802Z,102667.09
2023-01-03T13:47:57.232Z,102666.38
2023-01-03T13:50:35.483Z,102671.84
2023-01-03T13:53:10.475Z,102673.34
2023-01-03T13:55:54.495Z,102663.94
2023-01-03T13:58:43.723Z,102656.91
2023-01-03T14:01:40.253Z,102657.84
2023-01-03T14:04:40.384Z,102657.75
2023-01-03T14:08:01.479Z,102650.25
2023-01-03T14:11:08.746Z,102660.56
2023-01-03T14:13:47.434Z,102659.47
2023-01-03T14:16:54.106Z,102665.50
2023-01-03T14:19:34.023Z,102660.13
2023-01-03T14:22:31.467Z,102666.28
2023-01-03T14:25:05.235Z,102660.19
2023-01-03T14:27:40.652Z,102655.34
2023-01-03T14:30:24.673Z,102660.97
2023-01-03T14:32:57.505Z,102660.41
2023-01-03T14:35:38.068Z,102658.78
2023-01-03T14:38:39.928Z,102660.56
2023-01-03T14:41:27.010Z,102667.47
2023-01-03T14:44:04.037Z,102662.56
2023-01-03T14:46:37.471Z,102664.09
2023-01-03T14:49:50.241Z,102661.78
2023-01-03T14:52:30.105Z,102675.06
2023-01-03T14:55:16.611Z,102666.44
2023-01-03T14:57:50.528Z,102672.63
2023-01-03T15:00:33.036Z,102669.03
2023-01-03T15:03:11.054Z,102677.94
2023-01-03T15:05:43.553Z,102669.31
2023-01-03T15:08:15.527Z,102675.63
2023-01-03T15:11:00.485Z,102663.44
2023-01-03T15:13:56.693Z,102668.75
2023-01-03T15:16:42.340Z,102671.44
2023-01-03T15:19:26.682Z,102658.31
2023-01-03T15:22:13.083Z,102664.09
2023-01-03T15:24:48.178Z,102661.66
2023-01-03T15:27:41.104Z,102659.06
2023-01-03T15:30:22.994Z,102662.69
2023-01-03T15:33:05.140Z,102662.53
2023-01-03T15:35:42.937Z,102659.31
2023-01-03T15:38:23.187Z,102662.75
2023-01-03T15:40:55.211Z,102664.53
2023-01-03T15:43:39.164Z,102653.13
2023-01-03T15:46:20.320Z,102655.94
2023-01-03T15:48:56.027Z,102656.19
2023-01-03T15:51:28.101Z,102657.72
2023-01-03T15:54:00.104Z,102651.66
2023-01-03T15:56:35.791Z,102650.00
2023-01-03T15:59:09.585Z,102651.88
2023-01-03T16:01:42.348Z,102646.56
2023-01-03T16:04:14.601Z,102640.31
2023-01-03T16:06:47.150Z,102645.69
2023-01-03T16:09:20.611Z,102641.56
2023-01-03T16:11:57.593Z,102643.91
2023-01-03T16:14:36.628Z,102647.66
2023-01-03T16:17:13.685Z,102655.31
2023-01-03T16:19:46.051Z,102644.22
2023-01-03T16:25:06.232Z,102641.66
2023-01-03T16:27:38.248Z,102636.50
2023-01-03T16:30:13.055Z,102635.88
2023-01-03T16:32:45.301Z,102621.16
2023-01-03T16:35:19.591Z,102623.59
2023-01-03T16:37:51.631Z,102622.50
2023-01-03T16:40:23.704Z,102619.91
2023-01-03T16:42:56.213Z,102619.16
2023-01-03T16:45:28.426Z,102618.03
2023-01-03T16:48:00.622Z,102620.41
2023-01-03T16:50:39.024Z,102624.69
2023-01-03T16:53:30.424Z,102618.50
2023-01-03T16:56:03.963Z,102611.47
2023-01-03T16:58:35.981Z,102610.53
2023-01-03T17:01:08.496Z,102610.44
2023-01-03T17:03:42.290Z,102612.19
2023-01-03T17:06:38.403Z,102604.19
2023-01-03T17:09:29.099Z,102603.03
2023-01-03T17:12:01.044Z,102610.00
2023-01-03T17:14:36.990Z,102609.91
2023-01-03T17:17:22.290Z,102605.47
2023-01-03T17:20:09.739Z,102600.28
2023-01-03T17:22:50.967Z,102596.78
2023-01-03T17:25:23.797Z,102582.47
2023-01-03T17:28:10.811Z,102587.00
2023-01-03T17:30:44.362Z,102584.41
2023-01-03T17:33:16.553Z,102583.66
2023-01-03T17:35:48.678Z,102588.72
2023-01-03T17:38:26.175Z,102595.06
2023-01-03T17:40:59.147Z,102597.78
2023-01-03T17:43:32.475Z,102592.47
2023-01-03T17:46:44.580Z,102588.13
2023-01-03T17:49:27.436Z,102583.78
2023-01-03T17:52:07.037Z,102582.25
2023-01-03T17:54:41.573Z,102581.63
2023-01-03T17:57:13.938Z,102594.59
2023-01-03T17:59:45.920Z,102587.94
2023-01-03T18:02:22.553Z,102582.03
2023-01-03T18:07:47.873Z,102585.44
2023-01-03T18:10:30.405Z,102572.63
2023-01-03T18:13:02.575Z,102573.38
2023-01-03T18:15:34.597Z,102570.66
2023-01-03T18:18:14.258Z,102574.69
2023-01-03T18:20:46.593Z,102568.53
2023-01-03T18:23:35.744Z,102570.81
2023-01-03T18:26:14.334Z,102561.75
2023-01-03T18:28:46.386Z,102567.06
2023-01-03T18:31:19.946Z,102562.34
2023-01-03T18:33:52.091Z,102566.72
2023-01-03T18:36:28.627Z,102566.84
2023-01-03T18:39:08.284Z,102556.22
2023-01-03T18:41:41.352Z,102542.00
2023-01-03T18:44:22.332Z,102545.44
2023-01-03T18:46:54.461Z,102534.38
2023-01-03T18:49:26.470Z,102530.66
2023-01-03T18:51:58.475Z,102535.69
2023-01-03T18:54:30.694Z,102519.88
2023-01-03T18:57:02.680Z,102530.38
2023-01-03T18:59:35.296Z,102529.56
2023-01-03T19:02:16.166Z,102524.41
2023-01-03T19:04:51.650Z,102523.59
2023-01-03T19:07:34.374Z,102517.34
2023-01-03T19:10:25.497Z,102506.88
2023-01-03T19:12:59.124Z,102510.53
2023-01-03T19:15:31.238Z,102501.38
2023-01-03T19:18:04.193Z,102495.88
2023-01-03T19:20:36.551Z,102495.81
2023-01-03T19:23:08.824Z,102499.09
2023-01-03T19:25:41.485Z,102493.94
2023-01-03T19:28:13.679Z,102487.69
2023-01-03T19:30:46.749Z,102485.88
2023-01-03T19:33:19.609Z,102474.81
2023-01-03T19:35:51.880Z,102475.75
2023-01-03T19:38:23.980Z,102472.19
2023-01-03T19:40:56.085Z,102474.38
2023-01-03T19:43:28.717Z,102470.13
2023-01-03T19:46:00.887Z,102459.97
2023-01-03T19:48:33.016Z,102455.41
2023-01-03T19:51:05.743Z,102456.59
2023-01-03T19:53:38.967Z,102454.06
2023-01-03T19:56:22.875Z,102453.38
2023-01-03T19:59:00.947Z,102446.91
2023-01-03T20:01:58.212Z,102435.75
2023-01-03T20:04:33.550Z,102441.22
2023-01-03T20:07:14.766Z,102425.72
2023-01-03T20:09:46.764Z,102431.25
2023-01-03T20:12:25.418Z,102434.47
2023-01-03T20:15:06.558Z,102433.06
2023-01-03T20:17:39.403Z,102425.16
2023-01-03T20:20:13.847Z,102408.91
2023-01-03T20:23:07.013Z,102401.22
2023-01-03T20:25:39.418Z,102396.69
2023-01-03T20:28:29.264Z,102398.53
2023-01-03T20:31:04.982Z,102391.66
2023-01-03T20:33:37.031Z,102386.78
2023-01-03T20:36:23.103Z,102385.13
2023-01-03T20:38:56.412Z,102370.34
2023-01-03T20:41:37.578Z,102373.34
2023-01-03T20:44:10.379Z,102369.72
2023-01-03T20:46:42.578Z,102366.13
2023-01-03T20:49:26.639Z,102353.13
2023-01-03T20:52:03.176Z,102347.97
2023-01-03T20:54:35.206Z,102354.09
2023-01-03T20:57:18.806Z,102346.16
2023-01-03T20:59:50.887Z,102341.78
2023-01-03T21:02:29.241Z,102333.09
2023-01-03T21:05:01.425Z,102329.56
2023-01-03T21:07:51.812Z,102320.78
2023-01-03T21:10:26.555Z,102319.22
2023-01-03T21:12:58.826Z,102319.03
2023-01-03T21:15:31.013Z,102316.47
2023-01-03T21:18:10.592Z,102310.38
2023-01-03T21:20:43.298Z,102314.06
2023-01-03T21:23:21.239Z,102317.63
2023-01-03T21:25:55.492Z,102318.81
2023-01-03T21:28:27.460Z,102306.78
2023-01-03T21:31:04.970Z,102305.09
2023-01-03T21:33:37.516Z,102307.22
2023-01-03T21:36:19.241Z,102319.16
2023-01-03T21:38:56.367Z,102305.41
2023-01-03T21:41:34.674Z,102305.50
2023-01-03T21:44:07.906Z,102313.34
2023-01-03T21:46:43.416Z,102313.53
2023-01-03T21:49:15.620Z,102311.72
2023-01-03T21:51:47.613Z,102305.69
2023-01-03T21:54:19.604Z,102294.66
2023-01-03T21:56:51.561Z,102303.34
2023-01-03T21:59:23.682Z,102297.97
2023-01-03T22:02:14.080Z,102287.38
2023-01-03T22:04:46.380Z,102281.28
2023-01-03T22:07:19.898Z,102278.72
2023-01-03T22:10:10.830Z,102268.06
2023-01-03T22:13:05.074Z,102265.53
2023-01-03T22:15:39.189Z,102258.75
2023-01-03T22:18:13.261Z,102260.38
2023-01-03T22:20:45.255Z,102257.72
2023-01-03T22:23:19.197Z,102249.03
2023-01-03T22:25:51.175Z,102246.31
2023-01-03T22:28:25.222Z,102247.19
2023-01-03T22:30:57.751Z,102243.53
2023-01-03T22:33:30.031Z,102243.53
2023-01-03T22:36:02.038Z,102238.50
2023-01-03T22:38:34.844Z,102234.88
2023-01-03T22:41:12.936Z,102236.47
2023-01-03T22:43:45.880Z,102237.28
2023-01-03T22:46:18.005Z,102235.50
2023-01-03T22:48:50.165Z,102234.53
2023-01-03T22:51:22.287Z,102241.47
2023-01-03T22:53:54.563Z,102230.22
2023-01-03T22:56:26.634Z,102221.47
2023-01-03T22:58:58.753Z,102226.41
2023-01-03T23:01:31.695Z,102210.72
2023-01-03T23:04:06.814Z,102200.66
2023-01-03T23:06:38.875Z,102202.44
2023-01-03T23:09:12.165Z,102196.00
2023-01-03T23:12:03.134Z,102177.16
2023-01-03T23:14:35.343Z,102180.81
2023-01-03T23:17:26.231Z,102165.94
2023-01-03T23:19:58.308Z,102169.53
2023-01-03T23:22:30.365Z,102159.78
2023-01-03T23:25:02.347Z,102152.22
2023-01-03T23:27:34.863Z,102147.72
2023-01-03T23:30:07.799Z,102131.59
2023-01-03T23:32:39.941Z,102127.41
2023-01-03T23:35:12.103Z,102126.41
2023-01-03T23:37:46.617Z,102117.97
2023-01-03T23:40:18.593Z,102117.56
2023-01-03T23:42:50.717Z,102117.50
2023-01-03T23:45:22.688Z,102112.34
2023-01-03T23:47:55.304Z,102102.75
2023-01-03T23:50:27.549Z,102101.59
2023-01-03T23:52:59.757Z,102096.53
2023-01-03T23:55:31.841Z,102085.03
2023-01-03T23:58:03.852Z,102086.22
